sensor_id;sensor_type;location;lat;lon;timestamp;P1;durP1;ratioP1;P2;durP2;ratioP2
4652;SDS011;9900;48.738;9.306;2023-02-28T00:01:32;1.73;;;1.53;;
4652;SDS011;9900;48.738;9.306;2023-02-28T00:04:01;2.60;;;1.70;;
4652;SDS011;9900;48.738;9.306;2023-02-28T00:06:30;1.37;;;1.27;;
4652;SDS011;9900;48.738;9.306;2023-02-28T00:08:58;1.50;;;1.40;;
4652;SDS011;9900;48.738;9.306;2023-02-28T00:11:27;4.50;;;1.67;;
4652;SDS011;9900;48.738;9.306;2023-02-28T00:13:56;1.50;;;1.40;;
4652;SDS011;9900;48.738;9.306;2023-02-28T00:16:26;4.33;;;2.13;;
4652;SDS011;9900;48.738;9.306;2023-02-28T00:18:55;2.43;;;1.70;;
4652;SDS011;9900;48.738;9.306;2023-02-28T00:21:24;3.33;;;2.00;;
4652;SDS011;9900;48.738;9.306;2023-02-28T00:23:53;2.90;;;2.20;;
4652;SDS011;9900;48.738;9.306;2023-02-28T00:26:22;1.50;;;1.40;;
4652;SDS011;9900;48.738;9.306;2023-02-28T00:28:51;2.80;;;1.90;;
4652;SDS011;9900;48.738;9.306;2023-02-28T00:31:20;1.80;;;1.60;;
4652;SDS011;9900;48.738;9.306;2023-02-28T00:33:50;5.20;;;3.60;;
4652;SDS011;9900;48.738;9.306;2023-02-28T00:36:19;6.97;;;2.03;;
4652;SDS011;9900;48.738;9.306;2023-02-28T00:38:47;2.63;;;1.87;;
4652;SDS011;9900;48.738;9.306;2023-02-28T00:41:16;3.00;;;1.50;;
4652;SDS011;9900;48.738;9.306;2023-02-28T00:43:45;4.83;;;1.67;;
4652;SDS011;9900;48.738;9.306;2023-02-28T00:46:13;2.10;;;1.53;;
4652;SDS011;9900;48.738;9.306;2023-02-28T00:48:42;3.37;;;1.63;;
4652;SDS011;9900;48.738;9.306;2023-02-28T00:51:12;1.60;;;1.50;;
4652;SDS011;9900;48.738;9.306;2023-02-28T00:53:41;1.40;;;1.30;;
4652;SDS011;9900;48.738;9.306;2023-02-28T00:56:09;2.43;;;1.97;;
4652;SDS011;9900;48.738;9.306;2023-02-28T00:58:38;2.23;;;2.07;;
4652;SDS011;9900;48.738;9.306;2023-02-28T01:01:07;8.60;;;2.40;;
4652;SDS011;9900;48.738;9.306;2023-02-28T01:03:35;2.40;;;1.83;;
4652;SDS011;9900;48.738;9.306;2023-02-28T01:06:04;1.93;;;1.73;;
4652;SDS011;9900;48.738;9.306;2023-02-28T01:08:34;1.90;;;1.70;;
4652;SDS011;9900;48.738;9.306;2023-02-28T01:11:09;2.00;;;1.50;;
4652;SDS011;9900;48.738;9.306;2023-02-28T01:13:38;1.80;;;1.70;;
4652;SDS011;9900;48.738;9.306;2023-02-28T01:16:07;2.60;;;1.37;;
4652;SDS011;9900;48.738;9.306;2023-02-28T01:18:36;2.60;;;2.10;;
4652;SDS011;9900;48.738;9.306;2023-02-28T01:21:05;2.40;;;1.87;;
4652;SDS011;9900;48.738;9.306;2023-02-28T01:23:36;2.20;;;2.00;;
4652;SDS011;9900;48.738;9.306;2023-02-28T01:26:05;4.40;;;2.23;;
4652;SDS011;9900;48.738;9.306;2023-02-28T01:28:34;3.50;;;1.93;;
4652;SDS011;9900;48.738;9.306;2023-02-28T01:31:02;2.27;;;2.07;;
4652;SDS011;9900;48.738;9.306;2023-02-28T01:33:32;3.67;;;1.77;;
4652;SDS011;9900;48.738;9.306;2023-02-28T01:36:02;3.27;;;2.20;;
4652;SDS011;9900;48.738;9.306;2023-02-28T01:38:32;1.87;;;1.77;;
4652;SDS011;9900;48.738;9.306;2023-02-28T01:41:03;2.63;;;1.83;;
4652;SDS011;9900;48.738;9.306;2023-02-28T01:43:39;6.43;;;2.10;;
4652;SDS011;9900;48.738;9.306;2023-02-28T01:46:21;2.13;;;1.90;;
4652;SDS011;9900;48.738;9.306;2023-02-28T01:48:51;2.50;;;2.10;;
4652;SDS011;9900;48.738;9.306;2023-02-28T01:51:22;2.13;;;1.90;;
4652;SDS011;9900;48.738;9.306;2023-02-28T01:53:54;2.33;;;1.90;;
4652;SDS011;9900;48.738;9.306;2023-02-28T01:56:26;4.50;;;2.10;;
4652;SDS011;9900;48.738;9.306;2023-02-28T01:58:57;5.17;;;2.27;;
4652;SDS011;9900;48.738;9.306;2023-02-28T02:01:26;1.97;;;1.77;;
4652;SDS011;9900;48.738;9.306;2023-02-28T02:03:57;3.10;;;2.33;;
4652;SDS011;9900;48.738;9.306;2023-02-28T02:06:29;3.27;;;2.17;;
4652;SDS011;9900;48.738;9.306;2023-02-28T02:08:58;3.03;;;2.00;;
4652;SDS011;9900;48.738;9.306;2023-02-28T02:11:29;4.70;;;2.00;;
4652;SDS011;9900;48.738;9.306;2023-02-28T02:14:09;4.07;;;2.30;;
4652;SDS011;9900;48.738;9.306;2023-02-28T02:16:52;9.07;;;2.27;;
4652;SDS011;9900;48.738;9.306;2023-02-28T02:19:35;4.10;;;2.20;;
4652;SDS011;9900;48.738;9.306;2023-02-28T02:25:37;3.13;;;2.20;;
4652;SDS011;9900;48.738;9.306;2023-02-28T02:28:19;2.80;;;2.60;;
4652;SDS011;9900;48.738;9.306;2023-02-28T02:37:19;2.43;;;1.87;;
4652;SDS011;9900;48.738;9.306;2023-02-28T02:40:00;9.70;;;2.27;;
4652;SDS011;9900;48.738;9.306;2023-02-28T02:42:34;3.27;;;2.47;;
4652;SDS011;9900;48.738;9.306;2023-02-28T02:45:10;4.60;;;2.40;;
4652;SDS011;9900;48.738;9.306;2023-02-28T02:47:41;4.17;;;2.60;;
4652;SDS011;9900;48.738;9.306;2023-02-28T02:50:13;3.07;;;2.23;;
4652;SDS011;9900;48.738;9.306;2023-02-28T02:52:45;4.30;;;2.30;;
4652;SDS011;9900;48.738;9.306;2023-02-28T02:55:16;3.00;;;2.20;;
4652;SDS011;9900;48.738;9.306;2023-02-28T02:57:46;3.00;;;2.30;;
4652;SDS011;9900;48.738;9.306;2023-02-28T03:00:17;4.47;;;2.30;;
4652;SDS011;9900;48.738;9.306;2023-02-28T03:02:49;2.43;;;2.20;;
4652;SDS011;9900;48.738;9.306;2023-02-28T03:05:21;3.47;;;2.07;;
4652;SDS011;9900;48.738;9.306;2023-02-28T03:07:52;2.13;;;1.87;;
4652;SDS011;9900;48.738;9.306;2023-02-28T03:10:32;5.73;;;2.30;;
4652;SDS011;9900;48.738;9.306;2023-02-28T03:16:15;3.70;;;2.40;;
4652;SDS011;9900;48.738;9.306;2023-02-28T03:19:25;3.37;;;2.43;;
4652;SDS011;9900;48.738;9.306;2023-02-28T03:22:09;3.20;;;2.30;;
4652;SDS011;9900;48.738;9.306;2023-02-28T03:24:43;2.30;;;2.10;;
4652;SDS011;9900;48.738;9.306;2023-02-28T03:27:16;2.10;;;2.00;;
4652;SDS011;9900;48.738;9.306;2023-02-28T03:29:53;4.00;;;2.30;;
4652;SDS011;9900;48.738;9.306;2023-02-28T03:32:28;2.60;;;1.90;;
4652;SDS011;9900;48.738;9.306;2023-02-28T03:34:59;2.33;;;2.10;;
4652;SDS011;9900;48.738;9.306;2023-02-28T03:37:33;3.73;;;2.40;;
4652;SDS011;9900;48.738;9.306;2023-02-28T03:40:04;3.47;;;2.30;;
4652;SDS011;9900;48.738;9.306;2023-02-28T03:42:36;3.13;;;2.20;;
4652;SDS011;9900;48.738;9.306;2023-02-28T03:45:10;3.03;;;2.73;;
4652;SDS011;9900;48.738;9.306;2023-02-28T03:47:41;4.83;;;2.70;;
4652;SDS011;9900;48.738;9.306;2023-02-28T03:50:13;2.90;;;2.50;;
4652;SDS011;9900;48.738;9.306;2023-02-28T03:52:47;4.60;;;2.77;;
4652;SDS011;9900;48.738;9.306;2023-02-28T03:55:18;4.30;;;2.40;;
4652;SDS011;9900;48.738;9.306;2023-02-28T03:57:50;3.53;;;2.57;;
4652;SDS011;9900;48.738;9.306;2023-02-28T04:00:25;2.60;;;2.40;;
4652;SDS011;9900;48.738;9.306;2023-02-28T04:02:56;3.57;;;2.50;;
4652;SDS011;9900;48.738;9.306;2023-02-28T04:05:25;2.43;;;2.23;;
4652;SDS011;9900;48.738;9.306;2023-02-28T04:07:55;3.03;;;2.30;;
4652;SDS011;9900;48.738;9.306;2023-02-28T04:10:31;3.00;;;2.70;;
4652;SDS011;9900;48.738;9.306;2023-02-28T04:13:00;3.07;;;2.67;;
4652;SDS011;9900;48.738;9.306;2023-02-28T04:15:29;5.37;;;2.40;;
4652;SDS011;9900;48.738;9.306;2023-02-28T04:17:59;2.53;;;2.23;;
4652;SDS011;9900;48.738;9.306;2023-02-28T04:20:27;3.90;;;2.70;;
4652;SDS011;9900;48.738;9.306;2023-02-28T04:22:57;5.17;;;2.67;;
4652;SDS011;9900;48.738;9.306;2023-02-28T04:25:26;4.27;;;3.20;;
4652;SDS011;9900;48.738;9.306;2023-02-28T04:27:55;4.33;;;2.90;;
4652;SDS011;9900;48.738;9.306;2023-02-28T04:30:23;4.87;;;2.90;;
4652;SDS011;9900;48.738;9.306;2023-02-28T04:32:52;4.90;;;3.60;;
4652;SDS011;9900;48.738;9.306;2023-02-28T04:35:21;3.17;;;2.87;;
4652;SDS011;9900;48.738;9.306;2023-02-28T04:37:49;2.70;;;2.50;;
4652;SDS011;9900;48.738;9.306;2023-02-28T04:40:19;4.77;;;3.37;;
4652;SDS011;9900;48.738;9.306;2023-02-28T04:42:48;4.87;;;2.97;;
4652;SDS011;9900;48.738;9.306;2023-02-28T04:45:17;3.33;;;3.03;;
4652;SDS011;9900;48.738;9.306;2023-02-28T04:47:45;3.40;;;2.83;;
4652;SDS011;9900;48.738;9.306;2023-02-28T04:50:14;3.50;;;2.83;;
4652;SDS011;9900;48.738;9.306;2023-02-28T04:52:43;3.43;;;2.73;;
4652;SDS011;9900;48.738;9.306;2023-02-28T04:55:11;3.17;;;2.87;;
4652;SDS011;9900;48.738;9.306;2023-02-28T04:57:41;5.30;;;2.73;;
4652;SDS011;9900;48.738;9.306;2023-02-28T05:00:10;3.30;;;3.00;;
4652;SDS011;9900;48.738;9.306;2023-02-28T05:02:43;3.67;;;3.13;;
4652;SDS011;9900;48.738;9.306;2023-02-28T05:05:12;4.70;;;3.20;;
4652;SDS011;9900;48.738;9.306;2023-02-28T05:07:45;3.57;;;2.80;;
4652;SDS011;9900;48.738;9.306;2023-02-28T05:10:13;4.00;;;3.07;;
4652;SDS011;9900;48.738;9.306;2023-02-28T05:12:43;4.63;;;3.70;;
4652;SDS011;9900;48.738;9.306;2023-02-28T05:15:12;3.40;;;3.10;;
4652;SDS011;9900;48.738;9.306;2023-02-28T05:17:41;3.50;;;3.00;;
4652;SDS011;9900;48.738;9.306;2023-02-28T05:20:11;6.50;;;3.30;;
4652;SDS011;9900;48.738;9.306;2023-02-28T05:22:42;3.47;;;3.00;;
4652;SDS011;9900;48.738;9.306;2023-02-28T05:25:12;4.53;;;2.63;;
4652;SDS011;9900;48.738;9.306;2023-02-28T05:27:44;5.73;;;3.60;;
4652;SDS011;9900;48.738;9.306;2023-02-28T05:30:13;5.20;;;3.60;;
4652;SDS011;9900;48.738;9.306;2023-02-28T05:32:42;6.27;;;3.07;;
4652;SDS011;9900;48.738;9.306;2023-02-28T05:35:11;4.70;;;3.10;;
4652;SDS011;9900;48.738;9.306;2023-02-28T05:37:40;8.00;;;3.37;;
4652;SDS011;9900;48.738;9.306;2023-02-28T05:40:09;5.40;;;3.43;;
4652;SDS011;9900;48.738;9.306;2023-02-28T05:42:38;4.57;;;3.17;;
4652;SDS011;9900;48.738;9.306;2023-02-28T05:45:08;3.73;;;3.23;;
4652;SDS011;9900;48.738;9.306;2023-02-28T05:47:39;5.83;;;3.63;;
4652;SDS011;9900;48.738;9.306;2023-02-28T05:50:08;4.17;;;3.77;;
4652;SDS011;9900;48.738;9.306;2023-02-28T05:52:37;3.27;;;2.97;;
4652;SDS011;9900;48.738;9.306;2023-02-28T05:55:06;5.17;;;3.83;;
4652;SDS011;9900;48.738;9.306;2023-02-28T05:57:35;4.97;;;3.90;;
4652;SDS011;9900;48.738;9.306;2023-02-28T06:00:04;3.70;;;3.30;;
4652;SDS011;9900;48.738;9.306;2023-02-28T06:02:35;5.57;;;3.50;;
4652;SDS011;9900;48.738;9.306;2023-02-28T06:05:04;4.77;;;3.50;;
4652;SDS011;9900;48.738;9.306;2023-02-28T06:07:34;5.57;;;4.20;;
4652;SDS011;9900;48.738;9.306;2023-02-28T06:10:03;5.37;;;3.67;;
4652;SDS011;9900;48.738;9.306;2023-02-28T06:12:32;3.83;;;3.00;;
4652;SDS011;9900;48.738;9.306;2023-02-28T06:15:01;5.73;;;3.73;;
4652;SDS011;9900;48.738;9.306;2023-02-28T06:17:30;5.53;;;3.60;;
4652;SDS011;9900;48.738;9.306;2023-02-28T06:20:00;8.20;;;4.30;;
4652;SDS011;9900;48.738;9.306;2023-02-28T06:22:28;6.30;;;4.03;;
4652;SDS011;9900;48.738;9.306;2023-02-28T06:24:57;5.37;;;4.07;;
4652;SDS011;9900;48.738;9.306;2023-02-28T06:27:25;4.63;;;3.90;;
4652;SDS011;9900;48.738;9.306;2023-02-28T06:29:54;4.70;;;3.97;;
4652;SDS011;9900;48.738;9.306;2023-02-28T06:32:23;5.30;;;3.73;;
4652;SDS011;9900;48.738;9.306;2023-02-28T06:34:52;5.10;;;4.23;;
4652;SDS011;9900;48.738;9.306;2023-02-28T06:37:22;5.15;;;4.03;;
4652;SDS011;9900;48.738;9.306;2023-02-28T06:39:53;14.00;;;4.90;;
4652;SDS011;9900;48.738;9.306;2023-02-28T06:42:23;9.37;;;4.53;;
4652;SDS011;9900;48.738;9.306;2023-02-28T06:44:56;5.03;;;3.87;;
4652;SDS011;9900;48.738;9.306;2023-02-28T06:47:24;7.20;;;4.43;;
4652;SDS011;9900;48.738;9.306;2023-02-28T06:49:53;7.07;;;4.83;;
4652;SDS011;9900;48.738;9.306;2023-02-28T06:52:23;4.43;;;3.63;;
4652;SDS011;9900;48.738;9.306;2023-02-28T06:54:51;5.90;;;4.10;;
4652;SDS011;9900;48.738;9.306;2023-02-28T06:57:27;6.20;;;4.97;;
4652;SDS011;9900;48.738;9.306;2023-02-28T06:59:58;8.37;;;4.63;;
4652;SDS011;9900;48.738;9.306;2023-02-28T07:02:27;7.13;;;4.27;;
4652;SDS011;9900;48.738;9.306;2023-02-28T07:04:56;6.73;;;4.70;;
4652;SDS011;9900;48.738;9.306;2023-02-28T07:07:26;5.27;;;4.40;;
4652;SDS011;9900;48.738;9.306;2023-02-28T07:09:54;6.27;;;4.53;;
4652;SDS011;9900;48.738;9.306;2023-02-28T07:12:23;6.73;;;4.63;;
4652;SDS011;9900;48.738;9.306;2023-02-28T07:14:52;9.83;;;5.27;;
4652;SDS011;9900;48.738;9.306;2023-02-28T07:17:21;6.90;;;4.90;;
4652;SDS011;9900;48.738;9.306;2023-02-28T07:19:50;8.37;;;5.00;;
4652;SDS011;9900;48.738;9.306;2023-02-28T07:22:18;6.10;;;5.07;;
4652;SDS011;9900;48.738;9.306;2023-02-28T07:24:49;10.53;;;4.77;;
4652;SDS011;9900;48.738;9.306;2023-02-28T07:27:17;9.10;;;5.50;;
4652;SDS011;9900;48.738;9.306;2023-02-28T07:29:52;7.30;;;4.90;;
4652;SDS011;9900;48.738;9.306;2023-02-28T07:32:21;5.87;;;4.67;;
4652;SDS011;9900;48.738;9.306;2023-02-28T07:34:50;5.83;;;4.53;;
4652;SDS011;9900;48.738;9.306;2023-02-28T07:37:19;11.30;;;5.43;;
4652;SDS011;9900;48.738;9.306;2023-02-28T07:39:49;8.87;;;5.60;;
4652;SDS011;9900;48.738;9.306;2023-02-28T07:42:18;8.30;;;5.23;;
4652;SDS011;9900;48.738;9.306;2023-02-28T07:44:48;7.77;;;4.93;;
4652;SDS011;9900;48.738;9.306;2023-02-28T07:47:19;9.30;;;4.97;;
4652;SDS011;9900;48.738;9.306;2023-02-28T07:49:50;6.77;;;4.80;;
4652;SDS011;9900;48.738;9.306;2023-02-28T07:52:19;14.90;;;5.37;;
4652;SDS011;9900;48.738;9.306;2023-02-28T07:54:52;11.03;;;5.33;;
4652;SDS011;9900;48.738;9.306;2023-02-28T07:57:20;18.00;;;5.87;;
4652;SDS011;9900;48.738;9.306;2023-02-28T07:59:49;5.70;;;4.60;;
4652;SDS011;9900;48.738;9.306;2023-02-28T08:02:18;6.03;;;4.77;;
4652;SDS011;9900;48.738;9.306;2023-02-28T08:04:46;6.83;;;5.00;;
4652;SDS011;9900;48.738;9.306;2023-02-28T08:07:16;7.20;;;5.47;;
4652;SDS011;9900;48.738;9.306;2023-02-28T08:09:45;6.63;;;5.33;;
4652;SDS011;9900;48.738;9.306;2023-02-28T08:12:15;6.90;;;5.10;;
4652;SDS011;9900;48.738;9.306;2023-02-28T08:14:43;9.57;;;5.30;;
4652;SDS011;9900;48.738;9.306;2023-02-28T08:17:12;7.97;;;5.53;;
4652;SDS011;9900;48.738;9.306;2023-02-28T08:19:41;7.87;;;5.00;;
4652;SDS011;9900;48.738;9.306;2023-02-28T08:22:09;6.50;;;4.90;;
4652;SDS011;9900;48.738;9.306;2023-02-28T08:24:38;9.53;;;5.03;;
4652;SDS011;9900;48.738;9.306;2023-02-28T08:27:07;7.20;;;5.53;;
4652;SDS011;9900;48.738;9.306;2023-02-28T08:29:38;6.83;;;4.73;;
4652;SDS011;9900;48.738;9.306;2023-02-28T08:32:07;6.70;;;4.97;;
4652;SDS011;9900;48.738;9.306;2023-02-28T08:34:54;12.67;;;5.30;;
4652;SDS011;9900;48.738;9.306;2023-02-28T08:37:23;5.70;;;4.83;;
4652;SDS011;9900;48.738;9.306;2023-02-28T08:39:52;10.40;;;5.57;;
4652;SDS011;9900;48.738;9.306;2023-02-28T08:42:22;9.63;;;5.60;;
4652;SDS011;9900;48.738;9.306;2023-02-28T08:44:53;6.47;;;5.00;;
4652;SDS011;9900;48.738;9.306;2023-02-28T08:47:21;7.57;;;5.47;;
4652;SDS011;9900;48.738;9.306;2023-02-28T08:49:50;9.37;;;5.00;;
4652;SDS011;9900;48.738;9.306;2023-02-28T08:52:19;6.70;;;5.07;;
4652;SDS011;9900;48.738;9.306;2023-02-28T08:54:47;8.17;;;5.67;;
4652;SDS011;9900;48.738;9.306;2023-02-28T08:57:16;7.47;;;5.20;;
4652;SDS011;9900;48.738;9.306;2023-02-28T08:59:45;10.37;;;5.83;;
4652;SDS011;9900;48.738;9.306;2023-02-28T09:02:15;8.63;;;5.90;;
4652;SDS011;9900;48.738;9.306;2023-02-28T09:04:43;9.13;;;5.77;;
4652;SDS011;9900;48.738;9.306;2023-02-28T09:07:13;8.63;;;5.87;;
4652;SDS011;9900;48.738;9.306;2023-02-28T09:09:42;11.40;;;5.10;;
4652;SDS011;9900;48.738;9.306;2023-02-28T09:12:21;8.00;;;5.40;;
4652;SDS011;9900;48.738;9.306;2023-02-28T09:14:50;7.80;;;5.33;;
4652;SDS011;9900;48.738;9.306;2023-02-28T09:17:20;8.47;;;5.60;;
4652;SDS011;9900;48.738;9.306;2023-02-28T09:19:49;8.03;;;6.07;;
4652;SDS011;9900;48.738;9.306;2023-02-28T09:22:18;7.20;;;5.67;;
4652;SDS011;9900;48.738;9.306;2023-02-28T09:24:46;10.70;;;5.77;;
4652;SDS011;9900;48.738;9.306;2023-02-28T09:27:15;8.73;;;5.27;;
4652;SDS011;9900;48.738;9.306;2023-02-28T09:29:44;6.83;;;5.60;;
4652;SDS011;9900;48.738;9.306;2023-02-28T09:32:12;9.30;;;5.73;;
4652;SDS011;9900;48.738;9.306;2023-02-28T09:34:43;8.07;;;5.70;;
4652;SDS011;9900;48.738;9.306;2023-02-28T09:37:11;11.50;;;6.00;;
4652;SDS011;9900;48.738;9.306;2023-02-28T09:39:40;7.30;;;5.70;;
4652;SDS011;9900;48.738;9.306;2023-02-28T09:42:11;8.93;;;5.40;;
4652;SDS011;9900;48.738;9.306;2023-02-28T09:44:46;6.63;;;5.70;;
4652;SDS011;9900;48.738;9.306;2023-02-28T09:47:17;12.50;;;6.07;;
4652;SDS011;9900;48.738;9.306;2023-02-28T09:49:51;22.00;;;6.07;;
4652;SDS011;9900;48.738;9.306;2023-02-28T09:52:21;11.37;;;6.57;;
4652;SDS011;9900;48.738;9.306;2023-02-28T09:54:52;8.60;;;6.00;;
4652;SDS011;9900;48.738;9.306;2023-02-28T09:57:23;8.87;;;6.03;;
4652;SDS011;9900;48.738;9.306;2023-02-28T10:00:00;7.53;;;5.37;;
4652;SDS011;9900;48.738;9.306;2023-02-28T10:02:39;7.73;;;5.83;;
4652;SDS011;9900;48.738;9.306;2023-02-28T10:05:16;9.37;;;6.00;;
4652;SDS011;9900;48.738;9.306;2023-02-28T10:07:50;7.30;;;5.87;;
4652;SDS011;9900;48.738;9.306;2023-02-28T10:10:26;8.13;;;5.83;;
4652;SDS011;9900;48.738;9.306;2023-02-28T10:12:59;11.50;;;6.37;;
4652;SDS011;9900;48.738;9.306;2023-02-28T10:15:30;8.97;;;6.20;;
4652;SDS011;9900;48.738;9.306;2023-02-28T10:18:01;8.47;;;6.03;;
4652;SDS011;9900;48.738;9.306;2023-02-28T10:20:38;10.87;;;6.80;;
4652;SDS011;9900;48.738;9.306;2023-02-28T10:23:09;8.27;;;5.87;;
4652;SDS011;9900;48.738;9.306;2023-02-28T10:25:41;10.17;;;5.77;;
4652;SDS011;9900;48.738;9.306;2023-02-28T10:28:15;7.90;;;5.97;;
4652;SDS011;9900;48.738;9.306;2023-02-28T10:30:46;8.00;;;5.70;;
4652;SDS011;9900;48.738;9.306;2023-02-28T10:33:17;7.23;;;5.87;;
4652;SDS011;9900;48.738;9.306;2023-02-28T10:35:49;14.63;;;6.10;;
4652;SDS011;9900;48.738;9.306;2023-02-28T10:38:19;13.00;;;7.37;;
4652;SDS011;9900;48.738;9.306;2023-02-28T10:40:50;8.00;;;5.63;;
4652;SDS011;9900;48.738;9.306;2023-02-28T10:43:22;8.90;;;6.47;;
4652;SDS011;9900;48.738;9.306;2023-02-28T10:45:52;13.10;;;6.33;;
4652;SDS011;9900;48.738;9.306;2023-02-28T10:48:29;12.00;;;6.47;;
4652;SDS011;9900;48.738;9.306;2023-02-28T10:51:02;8.70;;;6.20;;
4652;SDS011;9900;48.738;9.306;2023-02-28T10:53:32;7.20;;;5.20;;
4652;SDS011;9900;48.738;9.306;2023-02-28T10:56:24;9.13;;;5.33;;
4652;SDS011;9900;48.738;9.306;2023-02-28T10:58:53;8.30;;;5.80;;
4652;SDS011;9900;48.738;9.306;2023-02-28T11:01:24;9.33;;;5.90;;
4652;SDS011;9900;48.738;9.306;2023-02-28T11:03:56;8.60;;;5.60;;
4652;SDS011;9900;48.738;9.306;2023-02-28T11:06:28;8.10;;;6.67;;
4652;SDS011;9900;48.738;9.306;2023-02-28T11:08:59;8.70;;;6.30;;
4652;SDS011;9900;48.738;9.306;2023-02-28T11:11:29;10.03;;;6.40;;
4652;SDS011;9900;48.738;9.306;2023-02-28T11:14:02;9.47;;;6.37;;
4652;SDS011;9900;48.738;9.306;2023-02-28T11:16:33;10.83;;;6.50;;
4652;SDS011;9900;48.738;9.306;2023-02-28T11:19:04;8.43;;;6.07;;
4652;SDS011;9900;48.738;9.306;2023-02-28T11:21:36;7.70;;;6.20;;
4652;SDS011;9900;48.738;9.306;2023-02-28T11:24:12;11.40;;;6.53;;
4652;SDS011;9900;48.738;9.306;2023-02-28T11:26:44;9.27;;;6.60;;
4652;SDS011;9900;48.738;9.306;2023-02-28T11:29:19;8.80;;;5.93;;
4652;SDS011;9900;48.738;9.306;2023-02-28T11:34:47;7.73;;;5.63;;
4652;SDS011;9900;48.738;9.306;2023-02-28T11:37:30;7.50;;;6.33;;
4652;SDS011;9900;48.738;9.306;2023-02-28T11:39:59;8.63;;;6.57;;
4652;SDS011;9900;48.738;9.306;2023-02-28T11:45:36;13.67;;;6.43;;
4652;SDS011;9900;48.738;9.306;2023-02-28T11:48:14;7.93;;;5.93;;
4652;SDS011;9900;48.738;9.306;2023-02-28T11:50:50;9.00;;;5.33;;
4652;SDS011;9900;48.738;9.306;2023-02-28T11:53:31;6.77;;;6.07;;
4652;SDS011;9900;48.738;9.306;2023-02-28T11:56:09;9.83;;;6.60;;
4652;SDS011;9900;48.738;9.306;2023-02-28T11:58:44;11.43;;;6.37;;
4652;SDS011;9900;48.738;9.306;2023-02-28T12:01:21;7.53;;;6.30;;
4652;SDS011;9900;48.738;9.306;2023-02-28T12:03:59;8.97;;;6.70;;
4652;SDS011;9900;48.738;9.306;2023-02-28T12:06:33;8.60;;;6.00;;
4652;SDS011;9900;48.738;9.306;2023-02-28T12:09:13;9.50;;;5.90;;
4652;SDS011;9900;48.738;9.306;2023-02-28T12:12:00;14.00;;;6.27;;
4652;SDS011;9900;48.738;9.306;2023-02-28T12:14:46;10.03;;;6.17;;
4652;SDS011;9900;48.738;9.306;2023-02-28T12:17:26;7.10;;;5.80;;
4652;SDS011;9900;48.738;9.306;2023-02-28T12:20:09;9.20;;;6.27;;
4652;SDS011;9900;48.738;9.306;2023-02-28T12:22:46;12.03;;;6.13;;
4652;SDS011;9900;48.738;9.306;2023-02-28T12:25:31;21.00;;;7.00;;
4652;SDS011;9900;48.738;9.306;2023-02-28T12:28:08;11.87;;;6.37;;
4652;SDS011;9900;48.738;9.306;2023-02-28T12:30:38;9.93;;;6.50;;
4652;SDS011;9900;48.738;9.306;2023-02-28T12:33:10;8.03;;;5.83;;
4652;SDS011;9900;48.738;9.306;2023-02-28T12:35:44;9.20;;;6.40;;
4652;SDS011;9900;48.738;9.306;2023-02-28T12:38:17;9.27;;;6.50;;
4652;SDS011;9900;48.738;9.306;2023-02-28T12:40:50;8.50;;;6.13;;
4652;SDS011;9900;48.738;9.306;2023-02-28T12:43:22;11.70;;;6.40;;
4652;SDS011;9900;48.738;9.306;2023-02-28T12:45:56;9.87;;;6.70;;
4652;SDS011;9900;48.738;9.306;2023-02-28T12:48:26;11.50;;;6.70;;
4652;SDS011;9900;48.738;9.306;2023-02-28T12:50:58;8.20;;;6.50;;
4652;SDS011;9900;48.738;9.306;2023-02-28T12:53:30;10.93;;;6.63;;
4652;SDS011;9900;48.738;9.306;2023-02-28T12:56:09;11.10;;;6.30;;
4652;SDS011;9900;48.738;9.306;2023-02-28T12:58:43;9.73;;;6.33;;
4652;SDS011;9900;48.738;9.306;2023-02-28T13:04:39;9.07;;;5.77;;
4652;SDS011;9900;48.738;9.306;2023-02-28T13:07:28;8.27;;;6.43;;
4652;SDS011;9900;48.738;9.306;2023-02-28T13:10:05;7.53;;;6.23;;
4652;SDS011;9900;48.738;9.306;2023-02-28T13:12:37;7.47;;;6.17;;
4652;SDS011;9900;48.738;9.306;2023-02-28T13:15:17;11.27;;;7.40;;
4652;SDS011;9900;48.738;9.306;2023-02-28T13:17:51;7.27;;;6.50;;
4652;SDS011;9900;48.738;9.306;2023-02-28T13:20:21;7.67;;;5.93;;
4652;SDS011;9900;48.738;9.306;2023-02-28T13:22:53;7.37;;;6.00;;
4652;SDS011;9900;48.738;9.306;2023-02-28T13:31:32;10.07;;;6.07;;
4652;SDS011;9900;48.738;9.306;2023-02-28T13:34:13;9.00;;;6.53;;
4652;SDS011;9900;48.738;9.306;2023-02-28T13:36:43;9.23;;;6.90;;
4652;SDS011;9900;48.738;9.306;2023-02-28T13:45:20;9.30;;;6.30;;
4652;SDS011;9900;48.738;9.306;2023-02-28T13:48:16;10.60;;;6.57;;
4652;SDS011;9900;48.738;9.306;2023-02-28T13:50:46;10.00;;;6.90;;
4652;SDS011;9900;48.738;9.306;2023-02-28T13:53:23;9.50;;;6.20;;
4652;SDS011;9900;48.738;9.306;2023-02-28T13:56:03;9.60;;;6.73;;
4652;SDS011;9900;48.738;9.306;2023-02-28T13:58:39;8.77;;;5.73;;
4652;SDS011;9900;48.738;9.306;2023-02-28T14:01:15;9.80;;;6.60;;
4652;SDS011;9900;48.738;9.306;2023-02-28T14:03:56;16.47;;;6.67;;
4652;SDS011;9900;48.738;9.306;2023-02-28T14:06:46;9.90;;;5.43;;
4652;SDS011;9900;48.738;9.306;2023-02-28T14:09:18;7.37;;;5.90;;
4652;SDS011;9900;48.738;9.306;2023-02-28T14:11:47;9.40;;;6.30;;
4652;SDS011;9900;48.738;9.306;2023-02-28T14:17:18;7.73;;;5.90;;
4652;SDS011;9900;48.738;9.306;2023-02-28T14:19:48;9.60;;;6.10;;
4652;SDS011;9900;48.738;9.306;2023-02-28T14:22:19;8.70;;;6.77;;
4652;SDS011;9900;48.738;9.306;2023-02-28T14:25:09;11.17;;;5.80;;
4652;SDS011;9900;48.738;9.306;2023-02-28T14:27:45;10.33;;;6.20;;
4652;SDS011;9900;48.738;9.306;2023-02-28T14:30:30;9.83;;;6.00;;
4652;SDS011;9900;48.738;9.306;2023-02-28T14:33:23;8.00;;;6.07;;
4652;SDS011;9900;48.738;9.306;2023-02-28T14:36:00;15.70;;;6.80;;
4652;SDS011;9900;48.738;9.306;2023-02-28T14:38:32;8.80;;;6.90;;
4652;SDS011;9900;48.738;9.306;2023-02-28T14:41:04;9.90;;;6.60;;
4652;SDS011;9900;48.738;9.306;2023-02-28T14:43:35;9.33;;;7.07;;
4652;SDS011;9900;48.738;9.306;2023-02-28T14:46:04;9.90;;;6.70;;
4652;SDS011;9900;48.738;9.306;2023-02-28T14:48:34;6.50;;;5.70;;
4652;SDS011;9900;48.738;9.306;2023-02-28T14:51:05;11.40;;;6.17;;
4652;SDS011;9900;48.738;9.306;2023-02-28T14:53:35;9.80;;;6.60;;
4652;SDS011;9900;48.738;9.306;2023-02-28T14:56:05;7.90;;;6.07;;
4652;SDS011;9900;48.738;9.306;2023-02-28T14:58:35;9.77;;;6.60;;
4652;SDS011;9900;48.738;9.306;2023-02-28T15:01:04;9.23;;;6.70;;
4652;SDS011;9900;48.738;9.306;2023-02-28T15:03:35;8.27;;;6.00;;
4652;SDS011;9900;48.738;9.306;2023-02-28T15:06:12;10.57;;;6.37;;
4652;SDS011;9900;48.738;9.306;2023-02-28T15:08:42;6.30;;;5.70;;
4652;SDS011;9900;48.738;9.306;2023-02-28T15:11:13;9.77;;;6.57;;
4652;SDS011;9900;48.738;9.306;2023-02-28T15:13:43;25.43;;;6.90;;
4652;SDS011;9900;48.738;9.306;2023-02-28T15:16:15;7.43;;;6.33;;
4652;SDS011;9900;48.738;9.306;2023-02-28T15:18:46;9.23;;;6.17;;
4652;SDS011;9900;48.738;9.306;2023-02-28T15:21:19;8.20;;;6.20;;
4652;SDS011;9900;48.738;9.306;2023-02-28T15:23:51;8.13;;;6.27;;
4652;SDS011;9900;48.738;9.306;2023-02-28T15:26:23;10.43;;;6.30;;
4652;SDS011;9900;48.738;9.306;2023-02-28T15:28:57;9.37;;;6.50;;
4652;SDS011;9900;48.738;9.306;2023-02-28T15:31:28;8.87;;;6.07;;
4652;SDS011;9900;48.738;9.306;2023-02-28T15:34:15;7.83;;;6.27;;
4652;SDS011;9900;48.738;9.306;2023-02-28T15:36:49;11.20;;;6.47;;
4652;SDS011;9900;48.738;9.306;2023-02-28T15:39:19;12.40;;;6.40;;
4652;SDS011;9900;48.738;9.306;2023-02-28T15:41:49;7.87;;;6.33;;
4652;SDS011;9900;48.738;9.306;2023-02-28T15:44:24;22.70;;;6.17;;
4652;SDS011;9900;48.738;9.306;2023-02-28T15:46:54;8.33;;;6.00;;
4652;SDS011;9900;48.738;9.306;2023-02-28T15:49:25;11.00;;;6.33;;
4652;SDS011;9900;48.738;9.306;2023-02-28T15:51:57;7.87;;;6.67;;
4652;SDS011;9900;48.738;9.306;2023-02-28T15:54:28;9.97;;;6.67;;
4652;SDS011;9900;48.738;9.306;2023-02-28T15:57:00;15.37;;;8.17;;
4652;SDS011;9900;48.738;9.306;2023-02-28T15:59:33;8.67;;;6.37;;
4652;SDS011;9900;48.738;9.306;2023-02-28T16:02:03;10.93;;;7.00;;
4652;SDS011;9900;48.738;9.306;2023-02-28T16:04:55;9.77;;;6.73;;
4652;SDS011;9900;48.738;9.306;2023-02-28T16:07:26;9.40;;;7.40;;
4652;SDS011;9900;48.738;9.306;2023-02-28T16:09:55;10.40;;;7.07;;
4652;SDS011;9900;48.738;9.306;2023-02-28T16:12:25;10.07;;;6.77;;
4652;SDS011;9900;48.738;9.306;2023-02-28T16:14:57;8.47;;;6.23;;
4652;SDS011;9900;48.738;9.306;2023-02-28T16:17:26;10.87;;;6.90;;
4652;SDS011;9900;48.738;9.306;2023-02-28T16:19:56;8.93;;;6.50;;